createdAt,value
2019-02-14T00:00:08.101Z,284.13
2019-02-14T00:02:36.424Z,291.13
2019-02-14T00:05:05.253Z,292.30
2019-02-14T00:07:33.922Z,305.57
2019-02-14T00:10:02.214Z,298.33
2019-02-14T00:12:30.792Z,279.83
2019-02-14T00:14:59.370Z,317.10
2019-02-14T00:17:27.950Z,318.57
2019-02-14T00:19:56.259Z,325.40
2019-02-14T00:22:24.563Z,328.37
2019-02-14T00:24:53.192Z,332.00
2019-02-14T00:27:21.506Z,320.17
2019-02-14T00:29:50.073Z,311.60
2019-02-14T00:32:18.640Z,304.03
2019-02-14T00:34:47.216Z,296.70
2019-02-14T00:37:15.798Z,297.27
2019-02-14T00:39:44.116Z,292.63
2019-02-14T00:42:12.422Z,293.77
2019-02-14T00:44:40.723Z,292.50
2019-02-14T00:47:09.407Z,289.03
2019-02-14T00:49:38.008Z,297.53
2019-02-14T00:52:06.322Z,285.77
2019-02-14T00:54:34.602Z,273.87
2019-02-14T00:57:03.246Z,271.17
2019-02-14T00:59:31.538Z,269.80
2019-02-14T01:02:00.114Z,261.50
2019-02-14T01:04:28.454Z,270.80
2019-02-14T01:06:56.806Z,269.70
2019-02-14T01:09:25.129Z,257.37
2019-02-14T01:11:53.410Z,250.03
2019-02-14T01:14:22.046Z,247.93
2019-02-14T01:16:50.791Z,247.80
2019-02-14T01:19:19.366Z,241.53
2019-02-14T01:21:47.963Z,239.83
2019-02-14T01:24:16.535Z,243.43
2019-02-14T01:26:44.832Z,237.60
2019-02-14T01:29:13.115Z,230.33
2019-02-14T01:31:41.438Z,228.73
2019-02-14T01:34:09.726Z,225.03
2019-02-14T01:36:38.027Z,221.67
2019-02-14T01:39:06.919Z,227.30
2019-02-14T01:41:35.510Z,217.93
2019-02-14T01:44:04.083Z,214.30
2019-02-14T01:46:32.667Z,208.93
2019-02-14T01:49:00.968Z,211.67
2019-02-14T01:51:29.290Z,203.40
2019-02-14T01:53:59.086Z,200.33
2019-02-14T01:56:27.819Z,203.80
2019-02-14T01:58:56.123Z,199.23
2019-02-14T02:01:24.990Z,193.03
2019-02-14T02:03:53.306Z,202.00
2019-02-14T02:06:21.954Z,197.63
2019-02-14T02:08:50.262Z,190.77
2019-02-14T02:11:18.819Z,180.37
2019-02-14T02:13:47.399Z,182.53
2019-02-14T02:16:15.980Z,179.23
2019-02-14T02:18:44.568Z,193.47
2019-02-14T02:21:12.874Z,189.27
2019-02-14T02:23:41.162Z,218.00
2019-02-14T02:26:09.513Z,227.97
2019-02-14T02:28:38.139Z,215.63
2019-02-14T02:31:06.977Z,208.60
2019-02-14T02:33:35.277Z,208.13
2019-02-14T02:36:03.599Z,211.30
2019-02-14T02:38:31.894Z,208.20
2019-02-14T02:41:00.479Z,203.70
2019-02-14T02:43:29.077Z,182.40
2019-02-14T02:45:57.659Z,185.40
2019-02-14T02:48:25.961Z,186.90
2019-02-14T02:50:54.511Z,174.73
2019-02-14T02:53:23.107Z,183.70
2019-02-14T02:55:51.390Z,193.27
2019-02-14T02:58:20.160Z,184.47
2019-02-14T03:00:48.738Z,184.67
2019-02-14T03:03:17.031Z,187.40
2019-02-14T03:05:45.342Z,181.13
2019-02-14T03:08:15.121Z,188.27
2019-02-14T03:10:43.499Z,187.00
2019-02-14T03:13:11.790Z,180.87
2019-02-14T03:15:40.355Z,171.87
2019-02-14T03:18:08.669Z,169.53
2019-02-14T03:20:37.034Z,170.53
2019-02-14T03:23:05.333Z,170.30
2019-02-14T03:25:33.635Z,170.47
2019-02-14T03:28:01.950Z,163.53
2019-02-14T03:30:30.506Z,162.30
2019-02-14T03:32:58.879Z,158.50
2019-02-14T03:35:27.273Z,156.70
2019-02-14T03:37:55.859Z,152.43
2019-02-14T03:40:24.449Z,153.70
2019-02-14T03:42:54.123Z,152.70
2019-02-14T03:45:22.845Z,151.57
2019-02-14T03:47:51.154Z,147.67
2019-02-14T03:50:19.442Z,147.03
2019-02-14T03:52:47.758Z,143.33
2019-02-14T03:55:16.417Z,138.27
2019-02-14T03:57:44.747Z,150.33
2019-02-14T04:00:16.318Z,142.63
2019-02-14T04:02:44.879Z,142.37
2019-02-14T04:05:13.466Z,133.40
2019-02-14T04:07:42.039Z,138.60
2019-02-14T04:10:14.620Z,133.20
2019-02-14T04:12:42.927Z,135.77
2019-02-14T04:15:13.719Z,133.97
2019-02-14T04:17:41.994Z,130.27
2019-02-14T04:20:10.937Z,128.53
2019-02-14T04:25:36.618Z,123.40
2019-02-14T04:28:05.838Z,125.07
2019-02-14T04:30:34.427Z,125.50
2019-02-14T04:33:03.002Z,120.13
2019-02-14T04:35:31.318Z,120.00
2019-02-14T04:37:59.607Z,114.33
2019-02-14T04:40:33.425Z,118.43
2019-02-14T04:42:58.018Z,116.77
2019-02-14T04:45:26.344Z,113.60
2019-02-14T04:47:54.653Z,114.17
2019-02-14T04:50:22.940Z,111.60
2019-02-14T04:52:51.312Z,110.43
2019-02-14T04:55:19.595Z,107.10
2019-02-14T04:57:47.905Z,108.40
2019-02-14T05:00:16.360Z,107.43
2019-02-14T05:02:44.988Z,108.30
2019-02-14T05:05:13.299Z,104.13
2019-02-14T05:07:41.948Z,104.33
2019-02-14T05:10:11.864Z,104.57
2019-02-14T05:12:40.446Z,103.40
2019-02-14T05:15:11.435Z,101.00
2019-02-14T05:17:40.084Z,95.97
2019-02-14T05:20:10.524Z,96.43
2019-02-14T05:22:38.793Z,98.20
2019-02-14T05:25:08.783Z,94.23
2019-02-14T05:27:37.143Z,97.30
2019-02-14T05:30:13.949Z,95.17
2019-02-14T05:32:42.342Z,92.00
2019-02-14T05:35:10.915Z,91.20
2019-02-14T05:37:39.492Z,89.63
2019-02-14T05:40:10.791Z,90.70
2019-02-14T05:42:39.251Z,92.20
2019-02-14T05:45:12.360Z,86.37
2019-02-14T05:47:40.895Z,86.53
2019-02-14T05:50:11.031Z,86.67
2019-02-14T05:52:39.596Z,93.23
2019-02-14T05:55:12.690Z,90.33
2019-02-14T05:57:41.037Z,85.53
2019-02-14T06:00:13.026Z,84.13
2019-02-14T06:02:41.314Z,85.10
2019-02-14T06:05:09.892Z,84.03
2019-02-14T06:07:38.475Z,81.10
2019-02-14T06:10:09.252Z,82.23
2019-02-14T06:12:37.552Z,81.27
2019-02-14T06:15:10.719Z,81.33
2019-02-14T06:17:39.007Z,79.33
2019-02-14T06:20:09.601Z,76.67
2019-02-14T06:22:38.277Z,79.60
2019-02-14T06:25:08.600Z,72.73
2019-02-14T06:27:36.978Z,78.37
2019-02-14T06:30:08.934Z,73.80
2019-02-14T06:32:37.242Z,74.33
2019-02-14T06:35:07.318Z,69.97
2019-02-14T06:37:35.910Z,73.07
2019-02-14T06:40:07.263Z,72.27
2019-02-14T06:42:35.548Z,69.13
2019-02-14T06:45:05.487Z,69.73
2019-02-14T06:47:33.767Z,69.90
2019-02-14T06:50:02.065Z,67.40
2019-02-14T06:52:30.354Z,64.97
2019-02-14T06:54:58.966Z,64.37
2019-02-14T06:57:27.512Z,61.90
2019-02-14T06:59:56.135Z,62.60
2019-02-14T07:02:24.447Z,63.07
2019-02-14T07:04:52.894Z,66.67
2019-02-14T07:07:21.178Z,63.03
2019-02-14T07:09:49.480Z,63.13
2019-02-14T07:12:17.773Z,63.80
2019-02-14T07:14:46.079Z,62.67
2019-02-14T07:17:14.687Z,60.53
2019-02-14T07:19:42.990Z,57.73
2019-02-14T07:22:11.280Z,60.87
2019-02-14T07:24:39.928Z,61.87
2019-02-14T07:27:08.712Z,59.67
2019-02-14T07:29:36.993Z,60.00
2019-02-14T07:32:05.286Z,56.20
2019-02-14T07:34:33.578Z,55.77
2019-02-14T07:37:01.882Z,56.63
2019-02-14T07:39:30.516Z,54.17
2019-02-14T07:41:59.093Z,52.47
2019-02-14T07:44:27.674Z,49.07
2019-02-14T07:46:56.254Z,56.30
2019-02-14T07:49:24.844Z,49.43
2019-02-14T07:51:53.232Z,56.53
2019-02-14T07:54:21.549Z,55.17
2019-02-14T07:56:49.822Z,53.90
2019-02-14T07:59:18.483Z,50.97
2019-02-14T08:01:47.148Z,51.63
2019-02-14T08:04:15.461Z,50.07
2019-02-14T08:06:44.108Z,50.07
2019-02-14T08:09:12.428Z,47.30
2019-02-14T08:11:40.722Z,54.83
2019-02-14T08:14:09.364Z,49.53
2019-02-14T08:16:37.688Z,49.87
2019-02-14T08:19:05.971Z,48.70
2019-02-14T08:21:34.286Z,45.73
2019-02-14T08:24:02.571Z,49.13
2019-02-14T08:26:30.880Z,45.27
2019-02-14T08:28:59.197Z,45.17
2019-02-14T08:31:27.801Z,51.00
2019-02-14T08:33:56.399Z,47.80
2019-02-14T08:36:24.695Z,44.93
2019-02-14T08:38:53.246Z,54.87
2019-02-14T08:41:21.566Z,47.30
2019-02-14T08:43:50.210Z,45.57
2019-02-14T08:46:18.791Z,47.50
2019-02-14T08:48:47.367Z,47.30
2019-02-14T08:51:15.672Z,46.27
2019-02-14T08:53:43.959Z,47.27
2019-02-14T08:56:12.615Z,44.53
2019-02-14T08:58:41.199Z,41.87
2019-02-14T09:01:09.515Z,73.67
2019-02-14T09:03:37.802Z,105.80
2019-02-14T09:06:06.450Z,112.00
2019-02-14T09:08:34.755Z,160.60
2019-02-14T09:11:03.077Z,154.43
2019-02-14T09:13:31.690Z,154.13
2019-02-14T09:16:00.151Z,156.07
2019-02-14T09:18:30.695Z,136.67
2019-02-14T09:20:58.987Z,133.30
2019-02-14T09:23:27.663Z,132.63
2019-02-14T09:25:55.950Z,124.60
2019-02-14T09:28:24.516Z,124.63
2019-02-14T09:30:52.825Z,125.07
2019-02-14T09:33:21.239Z,129.80
2019-02-14T09:35:49.855Z,149.83
2019-02-14T09:38:18.186Z,141.93
2019-02-14T09:40:46.488Z,143.87
2019-02-14T09:43:14.781Z,154.87
2019-02-14T09:45:43.078Z,194.10
2019-02-14T09:48:11.548Z,282.07
2019-02-14T09:50:43.994Z,219.40
2019-02-14T09:53:12.605Z,221.87
2019-02-14T09:55:41.015Z,264.10
2019-02-14T09:58:11.308Z,213.67
2019-02-14T10:00:39.633Z,200.87
2019-02-14T10:03:08.295Z,187.70
2019-02-14T10:05:36.666Z,196.20
2019-02-14T10:08:12.409Z,180.00
2019-02-14T10:10:35.085Z,176.33
2019-02-14T10:13:03.416Z,169.57
2019-02-14T10:15:32.013Z,174.37
2019-02-14T10:18:00.303Z,173.30
2019-02-14T10:20:28.637Z,162.90
2019-02-14T10:22:56.931Z,171.07
2019-02-14T10:25:25.234Z,158.83
2019-02-14T10:27:53.548Z,155.70
2019-02-14T10:30:22.911Z,165.07
2019-02-14T10:32:51.309Z,161.17
2019-02-14T10:35:19.702Z,176.17
2019-02-14T10:37:48.072Z,165.97
2019-02-14T10:40:16.987Z,170.07
2019-02-14T10:42:45.616Z,167.03
2019-02-14T10:45:16.957Z,171.23
2019-02-14T10:47:45.249Z,169.10
2019-02-14T10:50:13.634Z,162.33
2019-02-14T10:52:41.953Z,163.27
2019-02-14T10:55:12.048Z,164.93
2019-02-14T10:57:40.698Z,157.70
2019-02-14T11:00:28.070Z,156.27
2019-02-14T11:02:56.408Z,151.50
2019-02-14T11:05:24.780Z,149.70
2019-02-14T11:07:53.331Z,145.43
2019-02-14T11:10:21.650Z,153.67
2019-02-14T11:12:49.959Z,153.27
2019-02-14T11:15:20.635Z,140.03
2019-02-14T11:17:49.243Z,151.67
2019-02-14T11:20:18.082Z,145.20
2019-02-14T11:22:58.463Z,142.77
2019-02-14T11:25:35.138Z,147.20
2019-02-14T11:28:03.446Z,138.17
2019-02-14T11:30:31.754Z,142.37
2019-02-14T11:33:00.493Z,145.00
2019-02-14T11:35:30.430Z,139.27
2019-02-14T11:37:58.717Z,153.10
2019-02-14T11:40:27.036Z,156.30
2019-02-14T11:42:56.960Z,177.87
2019-02-14T11:45:25.832Z,195.03
2019-02-14T11:47:54.162Z,188.83
2019-02-14T11:50:24.606Z,187.97
2019-02-14T11:52:53.266Z,173.47
2019-02-14T11:55:21.844Z,172.90
2019-02-14T11:57:50.158Z,161.57
2019-02-14T12:00:26.210Z,169.53
2019-02-14T12:02:55.977Z,165.30
2019-02-14T12:05:24.884Z,173.43
2019-02-14T12:07:53.480Z,169.20
2019-02-14T12:10:22.151Z,172.50
2019-02-14T12:12:50.477Z,166.40
2019-02-14T12:15:18.871Z,164.47
2019-02-14T12:17:48.658Z,153.00
2019-02-14T12:20:17.328Z,169.50
2019-02-14T12:22:47.202Z,160.70
2019-02-14T12:25:18.869Z,170.57
2019-02-14T12:27:47.523Z,181.60
2019-02-14T12:30:17.593Z,164.67
2019-02-14T12:32:46.163Z,172.30
2019-02-14T12:35:14.453Z,173.90
2019-02-14T12:37:42.777Z,189.87
2019-02-14T12:40:12.867Z,186.60
2019-02-14T12:42:41.247Z,185.70
2019-02-14T12:45:20.684Z,183.13
2019-02-14T12:47:48.007Z,171.03
2019-02-14T12:50:16.333Z,165.70
2019-02-14T12:52:44.973Z,172.67
2019-02-14T12:55:13.662Z,183.17
2019-02-14T12:57:42.243Z,203.00
2019-02-14T13:00:22.848Z,200.17
2019-02-14T13:02:51.504Z,198.30
2019-02-14T13:05:19.892Z,199.40
2019-02-14T13:07:48.193Z,195.63
2019-02-14T13:10:17.958Z,191.27
2019-02-14T13:12:46.323Z,190.93
2019-02-14T13:15:17.523Z,176.53
2019-02-14T13:17:45.822Z,177.60
2019-02-14T13:20:14.150Z,161.87
2019-02-14T13:22:42.475Z,177.23
2019-02-14T13:25:11.911Z,184.03
2019-02-14T13:27:40.327Z,183.77
2019-02-14T13:30:12.061Z,185.50
2019-02-14T13:32:40.662Z,173.97
2019-02-14T13:35:08.959Z,176.03
2019-02-14T13:37:40.150Z,175.60
2019-02-14T13:40:09.262Z,170.27
2019-02-14T13:42:37.630Z,174.87
2019-02-14T13:45:09.361Z,170.13
2019-02-14T13:47:37.684Z,168.57
2019-02-14T13:50:08.746Z,161.27
2019-02-14T13:52:37.408Z,149.13
2019-02-14T13:55:07.938Z,156.83
2019-02-14T13:57:36.243Z,171.83
2019-02-14T14:00:25.729Z,168.27
2019-02-14T14:02:54.087Z,169.00
2019-02-14T14:05:22.458Z,182.37
2019-02-14T14:07:51.340Z,195.03
2019-02-14T14:10:19.905Z,200.93
2019-02-14T14:12:48.501Z,199.07
2019-02-14T14:15:17.086Z,191.60
2019-02-14T14:17:45.379Z,191.90
2019-02-14T14:20:13.940Z,214.73
2019-02-14T14:22:42.522Z,177.60
2019-02-14T14:25:13.796Z,184.70
2019-02-14T14:27:42.109Z,197.50
2019-02-14T14:30:13.948Z,201.40
2019-02-14T14:32:42.261Z,201.70
2019-02-14T14:35:11.478Z,182.70
2019-02-14T14:37:40.471Z,178.93
2019-02-14T14:40:14.544Z,186.73
2019-02-14T14:42:44.478Z,187.63
2019-02-14T14:45:14.426Z,183.97
2019-02-14T14:47:42.754Z,183.83
2019-02-14T14:50:11.056Z,190.43
2019-02-14T14:52:39.358Z,184.23
2019-02-14T14:55:07.662Z,186.40
2019-02-14T14:57:35.986Z,189.20
2019-02-14T15:00:05.810Z,229.43
2019-02-14T15:02:34.526Z,237.20
2019-02-14T15:05:02.906Z,203.03
2019-02-14T15:07:31.473Z,192.00
2019-02-14T15:10:00.072Z,175.93
2019-02-14T15:12:28.743Z,152.60
2019-02-14T15:14:57.039Z,169.93
2019-02-14T15:17:25.363Z,179.77
2019-02-14T15:19:53.993Z,182.60
2019-02-14T15:22:23.392Z,174.87
2019-02-14T15:24:51.692Z,164.53
2019-02-14T15:27:20.255Z,173.57
2019-02-14T15:29:48.831Z,172.93
2019-02-14T15:32:17.147Z,165.27
2019-02-14T15:34:45.795Z,170.30
2019-02-14T15:37:15.463Z,176.40
2019-02-14T15:39:44.418Z,159.07
2019-02-14T15:42:12.985Z,164.03
2019-02-14T15:44:41.568Z,174.20
2019-02-14T15:47:10.252Z,163.13
2019-02-14T15:49:38.568Z,164.20
2019-02-14T15:52:08.142Z,148.57
2019-02-14T15:54:36.471Z,145.20
2019-02-14T15:57:04.762Z,141.57
2019-02-14T15:59:33.438Z,149.47
2019-02-14T16:02:03.795Z,150.70
2019-02-14T16:04:31.938Z,143.77
2019-02-14T16:07:00.638Z,141.20
2019-02-14T16:09:29.346Z,142.93
2019-02-14T16:11:58.001Z,139.17
2019-02-14T16:14:26.422Z,141.63
2019-02-14T16:16:54.709Z,144.23
2019-02-14T16:19:23.374Z,145.90
2019-02-14T16:21:53.717Z,145.70
2019-02-14T16:24:21.972Z,135.90
2019-02-14T16:26:50.364Z,138.33
2019-02-14T16:29:19.039Z,145.30
2019-02-14T16:31:47.624Z,140.37
2019-02-14T16:34:16.210Z,118.27
2019-02-14T16:36:44.517Z,122.40
2019-02-14T16:39:12.884Z,122.37
2019-02-14T16:41:41.453Z,124.60
2019-02-14T16:44:09.766Z,124.43
2019-02-14T16:46:38.063Z,116.90
2019-02-14T16:49:06.354Z,115.40
2019-02-14T16:51:34.797Z,116.97
2019-02-14T16:54:04.819Z,114.60
2019-02-14T16:56:33.155Z,115.37
2019-02-14T16:59:01.483Z,102.67
2019-02-14T17:01:30.131Z,107.17
2019-02-14T17:03:58.607Z,108.73
2019-02-14T17:06:27.195Z,113.60
2019-02-14T17:08:56.177Z,118.57
2019-02-14T17:11:24.714Z,119.47
2019-02-14T17:13:53.067Z,122.87
2019-02-14T17:16:24.436Z,116.10
2019-02-14T17:18:52.845Z,116.53
2019-02-14T17:21:21.467Z,119.97
2019-02-14T17:23:50.099Z,109.70
2019-02-14T17:26:18.414Z,109.97
2019-02-14T17:28:47.097Z,110.87
2019-02-14T17:31:15.663Z,105.30
2019-02-14T17:33:44.018Z,103.13
2019-02-14T17:36:12.349Z,105.60
2019-02-14T17:38:40.661Z,103.00
2019-02-14T17:41:09.093Z,102.37
2019-02-14T17:43:37.850Z,97.37
2019-02-14T17:46:06.222Z,98.43
2019-02-14T17:48:36.727Z,109.73
2019-02-14T17:51:05.170Z,134.00
2019-02-14T17:53:33.746Z,131.07
2019-02-14T17:56:02.039Z,131.67
2019-02-14T17:58:30.613Z,138.57
2019-02-14T18:00:59.217Z,136.07
2019-02-14T18:03:27.607Z,140.40
2019-02-14T18:05:55.933Z,187.37
2019-02-14T18:08:24.272Z,200.03
2019-02-14T18:10:54.952Z,230.43
2019-02-14T18:13:22.962Z,237.13
2019-02-14T18:15:51.628Z,212.33
2019-02-14T18:18:20.308Z,204.93
2019-02-14T18:20:48.603Z,198.57
2019-02-14T18:23:16.912Z,183.27
2019-02-14T18:25:45.284Z,192.43
2019-02-14T18:28:13.924Z,185.63
2019-02-14T18:30:42.515Z,178.33
2019-02-14T18:33:11.079Z,184.10
2019-02-14T18:35:39.380Z,172.67
2019-02-14T18:38:07.975Z,164.67
2019-02-14T18:40:36.660Z,174.27
2019-02-14T18:43:05.340Z,158.17
2019-02-14T18:45:33.679Z,154.63
2019-02-14T18:48:02.112Z,161.30
2019-02-14T18:50:30.882Z,169.13
2019-02-14T18:52:59.571Z,175.67
2019-02-14T18:55:27.869Z,177.87
2019-02-14T18:57:56.626Z,191.73
2019-02-14T19:00:25.173Z,187.23
2019-02-14T19:02:53.803Z,189.07
2019-02-14T19:05:22.090Z,193.90
2019-02-14T19:07:50.782Z,185.57
2019-02-14T19:10:19.142Z,183.50
2019-02-14T19:12:47.496Z,171.83
2019-02-14T19:15:15.812Z,173.53
2019-02-14T19:17:44.467Z,169.00
2019-02-14T19:20:13.508Z,172.53
2019-02-14T19:22:42.275Z,145.97
2019-02-14T19:25:10.579Z,137.43
2019-02-14T19:27:38.907Z,144.33
2019-02-14T19:30:09.680Z,134.53
2019-02-14T19:32:38.246Z,128.17
2019-02-14T19:35:08.870Z,129.87
2019-02-14T19:37:37.317Z,132.33
2019-02-14T19:40:08.728Z,135.70
2019-02-14T19:42:37.015Z,161.47
2019-02-14T19:45:13.468Z,204.83
2019-02-14T19:47:41.893Z,207.37
2019-02-14T19:50:11.675Z,189.20
2019-02-14T19:52:39.980Z,182.83
2019-02-14T19:55:09.351Z,193.40
2019-02-14T19:57:38.004Z,188.00
2019-02-14T20:00:14.848Z,200.77
2019-02-14T20:02:43.945Z,204.83
2019-02-14T20:05:13.239Z,197.10
2019-02-14T20:07:41.780Z,180.00
2019-02-14T20:10:12.205Z,173.27
2019-02-14T20:12:40.615Z,171.80
2019-02-14T20:15:11.806Z,172.07
2019-02-14T20:17:40.133Z,168.20
2019-02-14T20:20:09.513Z,167.60
2019-02-14T20:22:38.192Z,168.07
2019-02-14T20:25:24.896Z,161.30
2019-02-14T20:27:53.291Z,180.30
2019-02-14T20:30:22.050Z,174.20
2019-02-14T20:32:50.390Z,178.73
2019-02-14T20:35:19.157Z,173.60
2019-02-14T20:37:47.531Z,170.07
2019-02-14T20:40:16.109Z,158.30
2019-02-14T20:42:44.732Z,167.20
2019-02-14T20:45:16.020Z,156.70
2019-02-14T20:47:44.395Z,170.23
2019-02-14T20:50:15.865Z,154.00
2019-02-14T20:52:44.319Z,145.93
2019-02-14T20:55:15.989Z,142.40
2019-02-14T20:57:44.708Z,145.70
2019-02-14T21:00:14.659Z,140.20
2019-02-14T21:02:43.255Z,144.53
2019-02-14T21:05:12.057Z,156.10
2019-02-14T21:07:40.350Z,152.03
2019-02-14T21:10:08.907Z,155.00
2019-02-14T21:12:37.355Z,154.57
2019-02-14T21:15:07.548Z,151.57
2019-02-14T21:17:35.878Z,144.77
2019-02-14T21:20:07.043Z,135.90
2019-02-14T21:22:35.351Z,151.60
2019-02-14T21:25:04.771Z,135.03
2019-02-14T21:27:35.189Z,137.27
2019-02-14T21:30:03.612Z,133.27
2019-02-14T21:32:31.980Z,137.27
2019-02-14T21:35:00.684Z,133.90
2019-02-14T21:37:29.154Z,137.00
2019-02-14T21:39:57.492Z,132.03
2019-02-14T21:42:29.434Z,123.90
2019-02-14T21:44:55.890Z,121.60
2019-02-14T21:47:24.517Z,117.17
2019-02-14T21:49:52.894Z,128.10
2019-02-14T21:52:21.219Z,161.63
2019-02-14T21:54:49.873Z,163.80
2019-02-14T21:57:18.374Z,151.43
2019-02-14T21:59:46.840Z,149.43
2019-02-14T22:02:15.458Z,191.23
2019-02-14T22:04:43.843Z,231.03
2019-02-14T22:07:12.160Z,212.30
2019-02-14T22:09:40.634Z,177.20
2019-02-14T22:12:09.029Z,184.07
2019-02-14T22:14:37.328Z,201.60
2019-02-14T22:17:05.766Z,220.63
2019-02-14T22:19:34.415Z,214.60
2019-02-14T22:22:02.724Z,180.37
2019-02-14T22:24:31.023Z,176.87
2019-02-14T22:26:59.314Z,169.43
2019-02-14T22:29:27.943Z,166.23
2019-02-14T22:31:56.309Z,162.33
2019-02-14T22:34:24.876Z,161.77
2019-02-14T22:36:53.226Z,157.80
2019-02-14T22:39:21.555Z,153.37
2019-02-14T22:41:49.923Z,153.83
2019-02-14T22:44:18.209Z,147.47
2019-02-14T22:46:46.526Z,150.37
2019-02-14T22:49:15.288Z,147.70
2019-02-14T22:51:45.817Z,148.20
2019-02-14T22:54:14.185Z,143.30
2019-02-14T22:56:42.492Z,145.50
2019-02-14T22:59:11.142Z,142.53
2019-02-14T23:01:39.712Z,137.23
2019-02-14T23:04:08.318Z,145.07
2019-02-14T23:06:39.352Z,147.10
2019-02-14T23:09:08.395Z,148.70
2019-02-14T23:11:37.027Z,148.83
2019-02-14T23:14:05.422Z,204.70
2019-02-14T23:16:34.107Z,188.43
2019-02-14T23:19:02.655Z,173.77
2019-02-14T23:21:31.266Z,167.83
2019-02-14T23:23:59.818Z,167.43
2019-02-14T23:26:28.400Z,163.10
2019-02-14T23:28:56.950Z,163.03
2019-02-14T23:31:25.907Z,156.37
2019-02-14T23:33:54.209Z,162.43
2019-02-14T23:36:22.615Z,158.47
2019-02-14T23:38:50.938Z,150.93
2019-02-14T23:41:19.507Z,153.60
2019-02-14T23:43:47.798Z,154.37
2019-02-14T23:46:16.388Z,161.27
2019-02-14T23:48:44.975Z,150.30
2019-02-14T23:51:13.557Z,150.70
2019-02-14T23:53:41.867Z,146.70
2019-02-14T23:56:10.182Z,161.13
2019-02-14T23:58:38.916Z,144.37
